sensor_id;sensor_type;location;lat;lon;timestamp;pressure;altitude;pressure_sealevel;temperature
41593;BMP180;28026;48.562;14.440;2023-02-21T00:01:23;93856.00;;;13.60
41593;BMP180;28026;48.562;14.440;2023-02-21T00:04:12;93844.00;;;13.60
41593;BMP180;28026;48.562;14.440;2023-02-21T00:07:02;93848.00;;;13.60
41593;BMP180;28026;48.562;14.440;2023-02-21T00:09:52;93845.00;;;13.60
41593;BMP180;28026;48.562;14.440;2023-02-21T00:12:41;93834.00;;;13.60
41593;BMP180;28026;48.562;14.440;2023-02-21T00:15:31;93831.00;;;13.60
41593;BMP180;28026;48.562;14.440;2023-02-21T00:18:20;93831.00;;;13.60
41593;BMP180;28026;48.562;14.440;2023-02-21T00:21:10;93843.00;;;13.60
41593;BMP180;28026;48.562;14.440;2023-02-21T00:23:59;93836.00;;;13.60
41593;BMP180;28026;48.562;14.440;2023-02-21T00:26:49;93849.00;;;13.60
41593;BMP180;28026;48.562;14.440;2023-02-21T00:29:38;93848.00;;;13.60
41593;BMP180;28026;48.562;14.440;2023-02-21T00:32:28;93860.00;;;13.50
41593;BMP180;28026;48.562;14.440;2023-02-21T00:35:18;93860.00;;;13.50
41593;BMP180;28026;48.562;14.440;2023-02-21T00:38:09;93858.00;;;13.50
41593;BMP180;28026;48.562;14.440;2023-02-21T00:40:59;93863.00;;;13.40
41593;BMP180;28026;48.562;14.440;2023-02-21T00:43:48;93845.00;;;13.40
41593;BMP180;28026;48.562;14.440;2023-02-21T00:46:38;93858.00;;;13.40
41593;BMP180;28026;48.562;14.440;2023-02-21T00:49:28;93844.00;;;13.50
41593;BMP180;28026;48.562;14.440;2023-02-21T00:52:17;93856.00;;;13.40
41593;BMP180;28026;48.562;14.440;2023-02-21T00:55:07;93857.00;;;13.40
41593;BMP180;28026;48.562;14.440;2023-02-21T00:57:56;93851.00;;;13.40
41593;BMP180;28026;48.562;14.440;2023-02-21T01:00:46;93849.00;;;13.30
41593;BMP180;28026;48.562;14.440;2023-02-21T01:03:36;93851.00;;;13.30
41593;BMP180;28026;48.562;14.440;2023-02-21T01:06:25;93846.00;;;13.20
41593;BMP180;28026;48.562;14.440;2023-02-21T01:09:15;93842.00;;;13.20
41593;BMP180;28026;48.562;14.440;2023-02-21T01:12:04;93841.00;;;13.20
41593;BMP180;28026;48.562;14.440;2023-02-21T01:14:54;93826.00;;;13.10
41593;BMP180;28026;48.562;14.440;2023-02-21T01:17:43;93831.00;;;13.10
41593;BMP180;28026;48.562;14.440;2023-02-21T01:20:33;93838.00;;;13.00
41593;BMP180;28026;48.562;14.440;2023-02-21T01:23:22;93828.00;;;13.00
41593;BMP180;28026;48.562;14.440;2023-02-21T01:26:12;93835.00;;;13.00
41593;BMP180;28026;48.562;14.440;2023-02-21T01:29:02;93843.00;;;12.90
41593;BMP180;28026;48.562;14.440;2023-02-21T01:31:52;93840.00;;;12.90
41593;BMP180;28026;48.562;14.440;2023-02-21T01:34:41;93838.00;;;12.90
41593;BMP180;28026;48.562;14.440;2023-02-21T01:37:31;93842.00;;;12.90
41593;BMP180;28026;48.562;14.440;2023-02-21T01:40:20;93842.00;;;12.80
41593;BMP180;28026;48.562;14.440;2023-02-21T01:43:20;93841.00;;;12.80
41593;BMP180;28026;48.562;14.440;2023-02-21T01:46:19;93834.00;;;12.80
41593;BMP180;28026;48.562;14.440;2023-02-21T01:49:16;93837.00;;;12.80
41593;BMP180;28026;48.562;14.440;2023-02-21T01:52:07;93835.00;;;12.80
41593;BMP180;28026;48.562;14.440;2023-02-21T01:54:58;93835.00;;;12.70
41593;BMP180;28026;48.562;14.440;2023-02-21T01:57:48;93833.00;;;12.70
41593;BMP180;28026;48.562;14.440;2023-02-21T02:00:40;93836.00;;;12.70
41593;BMP180;28026;48.562;14.440;2023-02-21T02:03:32;93831.00;;;12.70
41593;BMP180;28026;48.562;14.440;2023-02-21T02:06:22;93823.00;;;12.70
41593;BMP180;28026;48.562;14.440;2023-02-21T02:09:18;93820.00;;;12.70
41593;BMP180;28026;48.562;14.440;2023-02-21T02:35:06;93835.00;;;12.20
41593;BMP180;28026;48.562;14.440;2023-02-21T02:37:57;93833.00;;;12.20
41593;BMP180;28026;48.562;14.440;2023-02-21T02:41:56;93832.00;;;12.20
41593;BMP180;28026;48.562;14.440;2023-02-21T02:44:24;93837.00;;;12.20
41593;BMP180;28026;48.562;14.440;2023-02-21T02:47:04;93836.00;;;12.20
41593;BMP180;28026;48.562;14.440;2023-02-21T02:49:42;93823.00;;;12.20
41593;BMP180;28026;48.562;14.440;2023-02-21T02:52:14;93827.00;;;12.20
41593;BMP180;28026;48.562;14.440;2023-02-21T02:55:17;93825.00;;;12.10
41593;BMP180;28026;48.562;14.440;2023-02-21T02:57:54;93829.00;;;12.10
41593;BMP180;28026;48.562;14.440;2023-02-21T03:00:26;93830.00;;;12.00
41593;BMP180;28026;48.562;14.440;2023-02-21T03:10:01;93828.00;;;12.10
41593;BMP180;28026;48.562;14.440;2023-02-21T03:13:20;93817.00;;;12.00
41593;BMP180;28026;48.562;14.440;2023-02-21T03:19:02;93800.00;;;11.80
41593;BMP180;28026;48.562;14.440;2023-02-21T03:21:45;93807.00;;;11.80
41593;BMP180;28026;48.562;14.440;2023-02-21T03:24:22;93803.00;;;11.80
41593;BMP180;28026;48.562;14.440;2023-02-21T03:26:59;93797.00;;;11.80
41593;BMP180;28026;48.562;14.440;2023-02-21T03:29:36;93802.00;;;11.70
41593;BMP180;28026;48.562;14.440;2023-02-21T03:32:23;93796.00;;;11.70
41593;BMP180;28026;48.562;14.440;2023-02-21T03:34:57;93795.00;;;11.70
41593;BMP180;28026;48.562;14.440;2023-02-21T03:37:37;93801.00;;;11.70
41593;BMP180;28026;48.562;14.440;2023-02-21T03:40:22;93809.00;;;11.70
41593;BMP180;28026;48.562;14.440;2023-02-21T03:42:59;93810.00;;;11.70
41593;BMP180;28026;48.562;14.440;2023-02-21T03:45:31;93812.00;;;11.70
41593;BMP180;28026;48.562;14.440;2023-02-21T03:48:03;93809.00;;;11.60
41593;BMP180;28026;48.562;14.440;2023-02-21T03:50:34;93794.00;;;11.70
41593;BMP180;28026;48.562;14.440;2023-02-21T03:53:05;93792.00;;;11.60
41593;BMP180;28026;48.562;14.440;2023-02-21T03:55:36;93795.00;;;11.60
41593;BMP180;28026;48.562;14.440;2023-02-21T03:58:07;93809.00;;;11.60
41593;BMP180;28026;48.562;14.440;2023-02-21T04:00:38;93799.00;;;11.60
41593;BMP180;28026;48.562;14.440;2023-02-21T04:03:09;93798.00;;;11.60
41593;BMP180;28026;48.562;14.440;2023-02-21T04:05:40;93802.00;;;11.60
41593;BMP180;28026;48.562;14.440;2023-02-21T04:08:11;93792.00;;;11.60
41593;BMP180;28026;48.562;14.440;2023-02-21T04:10:42;93798.00;;;11.60
41593;BMP180;28026;48.562;14.440;2023-02-21T04:13:13;93792.00;;;11.60
41593;BMP180;28026;48.562;14.440;2023-02-21T04:15:44;93785.00;;;11.60
41593;BMP180;28026;48.562;14.440;2023-02-21T04:18:15;93793.00;;;11.60
41593;BMP180;28026;48.562;14.440;2023-02-21T04:20:46;93788.00;;;11.60
41593;BMP180;28026;48.562;14.440;2023-02-21T04:23:19;93792.00;;;11.50
41593;BMP180;28026;48.562;14.440;2023-02-21T04:25:51;93803.00;;;11.50
41593;BMP180;28026;48.562;14.440;2023-02-21T04:28:22;93808.00;;;11.50
41593;BMP180;28026;48.562;14.440;2023-02-21T04:30:53;93800.00;;;11.50
41593;BMP180;28026;48.562;14.440;2023-02-21T04:33:24;93799.00;;;11.50
41593;BMP180;28026;48.562;14.440;2023-02-21T04:35:55;93796.00;;;11.50
41593;BMP180;28026;48.562;14.440;2023-02-21T04:38:26;93797.00;;;11.40
41593;BMP180;28026;48.562;14.440;2023-02-21T04:40:57;93801.00;;;11.40
41593;BMP180;28026;48.562;14.440;2023-02-21T04:43:27;93801.00;;;11.40
41593;BMP180;28026;48.562;14.440;2023-02-21T04:45:59;93808.00;;;11.40
41593;BMP180;28026;48.562;14.440;2023-02-21T04:48:30;93809.00;;;11.40
41593;BMP180;28026;48.562;14.440;2023-02-21T04:51:01;93804.00;;;11.40
41593;BMP180;28026;48.562;14.440;2023-02-21T04:53:32;93803.00;;;11.40
41593;BMP180;28026;48.562;14.440;2023-02-21T04:56:03;93801.00;;;11.40
41593;BMP180;28026;48.562;14.440;2023-02-21T04:58:34;93787.00;;;11.40
41593;BMP180;28026;48.562;14.440;2023-02-21T05:01:05;93786.00;;;11.30
41593;BMP180;28026;48.562;14.440;2023-02-21T05:03:36;93778.00;;;11.20
41593;BMP180;28026;48.562;14.440;2023-02-21T05:06:07;93785.00;;;11.20
41593;BMP180;28026;48.562;14.440;2023-02-21T05:08:38;93786.00;;;11.20
41593;BMP180;28026;48.562;14.440;2023-02-21T05:11:09;93785.00;;;11.20
41593;BMP180;28026;48.562;14.440;2023-02-21T05:13:41;93777.00;;;11.20
41593;BMP180;28026;48.562;14.440;2023-02-21T05:16:13;93777.00;;;11.20
41593;BMP180;28026;48.562;14.440;2023-02-21T05:18:46;93771.00;;;11.20
41593;BMP180;28026;48.562;14.440;2023-02-21T05:21:18;93778.00;;;11.20
41593;BMP180;28026;48.562;14.440;2023-02-21T05:23:49;93782.00;;;11.20
41593;BMP180;28026;48.562;14.440;2023-02-21T05:26:32;93779.00;;;11.20
41593;BMP180;28026;48.562;14.440;2023-02-21T05:29:05;93786.00;;;11.20
41593;BMP180;28026;48.562;14.440;2023-02-21T05:31:36;93772.00;;;11.20
41593;BMP180;28026;48.562;14.440;2023-02-21T05:34:07;93782.00;;;11.20
41593;BMP180;28026;48.562;14.440;2023-02-21T05:36:38;93792.00;;;11.20
41593;BMP180;28026;48.562;14.440;2023-02-21T05:39:10;93784.00;;;11.10
41593;BMP180;28026;48.562;14.440;2023-02-21T05:41:47;93783.00;;;11.20
41593;BMP180;28026;48.562;14.440;2023-02-21T05:44:19;93781.00;;;11.20
41593;BMP180;28026;48.562;14.440;2023-02-21T05:46:50;93786.00;;;11.20
41593;BMP180;28026;48.562;14.440;2023-02-21T05:49:21;93789.00;;;11.20
41593;BMP180;28026;48.562;14.440;2023-02-21T05:51:52;93789.00;;;11.20
41593;BMP180;28026;48.562;14.440;2023-02-21T05:54:23;93793.00;;;11.10
41593;BMP180;28026;48.562;14.440;2023-02-21T05:56:54;93790.00;;;11.10
41593;BMP180;28026;48.562;14.440;2023-02-21T05:59:25;93791.00;;;11.10
41593;BMP180;28026;48.562;14.440;2023-02-21T06:01:56;93786.00;;;11.10
41593;BMP180;28026;48.562;14.440;2023-02-21T06:04:27;93787.00;;;11.10
41593;BMP180;28026;48.562;14.440;2023-02-21T06:06:58;93788.00;;;11.20
41593;BMP180;28026;48.562;14.440;2023-02-21T06:09:28;93791.00;;;11.20
41593;BMP180;28026;48.562;14.440;2023-02-21T06:12:00;93790.00;;;11.20
41593;BMP180;28026;48.562;14.440;2023-02-21T06:14:31;93784.00;;;11.20
41593;BMP180;28026;48.562;14.440;2023-02-21T06:17:02;93790.00;;;11.20
41593;BMP180;28026;48.562;14.440;2023-02-21T06:19:33;93793.00;;;11.20
41593;BMP180;28026;48.562;14.440;2023-02-21T06:22:04;93794.00;;;11.30
41593;BMP180;28026;48.562;14.440;2023-02-21T06:24:34;93805.00;;;11.30
41593;BMP180;28026;48.562;14.440;2023-02-21T06:27:05;93794.00;;;11.30
41593;BMP180;28026;48.562;14.440;2023-02-21T06:29:39;93798.00;;;11.30
41593;BMP180;28026;48.562;14.440;2023-02-21T06:32:10;93805.00;;;11.30
41593;BMP180;28026;48.562;14.440;2023-02-21T06:34:43;93809.00;;;11.40
41593;BMP180;28026;48.562;14.440;2023-02-21T06:37:14;93815.00;;;11.50
41593;BMP180;28026;48.562;14.440;2023-02-21T06:39:45;93817.00;;;11.50
41593;BMP180;28026;48.562;14.440;2023-02-21T06:42:17;93816.00;;;11.50
41593;BMP180;28026;48.562;14.440;2023-02-21T06:44:49;93819.00;;;11.60
41593;BMP180;28026;48.562;14.440;2023-02-21T06:47:20;93823.00;;;11.60
41593;BMP180;28026;48.562;14.440;2023-02-21T06:49:51;93826.00;;;11.70
41593;BMP180;28026;48.562;14.440;2023-02-21T06:52:22;93826.00;;;11.80
41593;BMP180;28026;48.562;14.440;2023-02-21T06:54:53;93816.00;;;11.80
41593;BMP180;28026;48.562;14.440;2023-02-21T06:57:24;93827.00;;;11.90
41593;BMP180;28026;48.562;14.440;2023-02-21T06:59:55;93828.00;;;12.00
41593;BMP180;28026;48.562;14.440;2023-02-21T07:02:26;93830.00;;;12.10
41593;BMP180;28026;48.562;14.440;2023-02-21T07:04:57;93831.00;;;12.20
41593;BMP180;28026;48.562;14.440;2023-02-21T07:07:27;93827.00;;;12.40
41593;BMP180;28026;48.562;14.440;2023-02-21T07:09:58;93830.00;;;12.50
41593;BMP180;28026;48.562;14.440;2023-02-21T07:12:29;93827.00;;;12.60
41593;BMP180;28026;48.562;14.440;2023-02-21T07:15:00;93831.00;;;12.60
41593;BMP180;28026;48.562;14.440;2023-02-21T07:17:31;93832.00;;;12.70
41593;BMP180;28026;48.562;14.440;2023-02-21T07:20:03;93842.00;;;12.80
41593;BMP180;28026;48.562;14.440;2023-02-21T07:22:34;93840.00;;;13.00
41593;BMP180;28026;48.562;14.440;2023-02-21T07:25:05;93841.00;;;13.00
41593;BMP180;28026;48.562;14.440;2023-02-21T07:27:36;93850.00;;;13.20
41593;BMP180;28026;48.562;14.440;2023-02-21T07:30:09;93856.00;;;13.40
41593;BMP180;28026;48.562;14.440;2023-02-21T07:32:40;93858.00;;;13.60
41593;BMP180;28026;48.562;14.440;2023-02-21T07:35:12;93854.00;;;13.90
41593;BMP180;28026;48.562;14.440;2023-02-21T07:37:43;93857.00;;;14.10
41593;BMP180;28026;48.562;14.440;2023-02-21T07:40:14;93865.00;;;14.20
41593;BMP180;28026;48.562;14.440;2023-02-21T07:42:45;93871.00;;;14.30
41593;BMP180;28026;48.562;14.440;2023-02-21T07:45:17;93868.00;;;14.50
41593;BMP180;28026;48.562;14.440;2023-02-21T07:47:48;93871.00;;;14.70
41593;BMP180;28026;48.562;14.440;2023-02-21T07:50:21;93881.00;;;14.80
41593;BMP180;28026;48.562;14.440;2023-02-21T07:52:53;93875.00;;;14.80
41593;BMP180;28026;48.562;14.440;2023-02-21T07:55:24;93874.00;;;14.70
41593;BMP180;28026;48.562;14.440;2023-02-21T07:57:56;93864.00;;;14.70
41593;BMP180;28026;48.562;14.440;2023-02-21T08:00:26;93868.00;;;14.70
41593;BMP180;28026;48.562;14.440;2023-02-21T08:02:59;93872.00;;;14.60
41593;BMP180;28026;48.562;14.440;2023-02-21T08:05:30;93869.00;;;14.50
41593;BMP180;28026;48.562;14.440;2023-02-21T08:08:01;93875.00;;;14.60
41593;BMP180;28026;48.562;14.440;2023-02-21T08:10:32;93879.00;;;14.50
41593;BMP180;28026;48.562;14.440;2023-02-21T08:13:04;93879.00;;;14.30
41593;BMP180;28026;48.562;14.440;2023-02-21T08:15:35;93870.00;;;14.30
41593;BMP180;28026;48.562;14.440;2023-02-21T08:18:06;93870.00;;;14.30
41593;BMP180;28026;48.562;14.440;2023-02-21T08:20:48;93863.00;;;14.30
41593;BMP180;28026;48.562;14.440;2023-02-21T08:23:23;93877.00;;;14.30
41593;BMP180;28026;48.562;14.440;2023-02-21T08:25:54;93884.00;;;14.30
41593;BMP180;28026;48.562;14.440;2023-02-21T08:28:25;93891.00;;;14.40
41593;BMP180;28026;48.562;14.440;2023-02-21T08:30:56;93884.00;;;14.40
41593;BMP180;28026;48.562;14.440;2023-02-21T08:33:27;93889.00;;;14.40
41593;BMP180;28026;48.562;14.440;2023-02-21T08:35:58;93891.00;;;14.40
41593;BMP180;28026;48.562;14.440;2023-02-21T08:38:29;93892.00;;;14.40
41593;BMP180;28026;48.562;14.440;2023-02-21T08:41:00;93900.00;;;14.40
41593;BMP180;28026;48.562;14.440;2023-02-21T08:43:32;93903.00;;;14.40
41593;BMP180;28026;48.562;14.440;2023-02-21T08:46:03;93903.00;;;14.40
41593;BMP180;28026;48.562;14.440;2023-02-21T08:48:34;93906.00;;;14.40
41593;BMP180;28026;48.562;14.440;2023-02-21T08:51:05;93901.00;;;14.40
41593;BMP180;28026;48.562;14.440;2023-02-21T08:53:36;93909.00;;;14.40
41593;BMP180;28026;48.562;14.440;2023-02-21T08:56:07;93906.00;;;14.40
41593;BMP180;28026;48.562;14.440;2023-02-21T08:58:38;93899.00;;;14.30
41593;BMP180;28026;48.562;14.440;2023-02-21T09:01:09;93896.00;;;14.30
41593;BMP180;28026;48.562;14.440;2023-02-21T09:03:40;93894.00;;;14.30
41593;BMP180;28026;48.562;14.440;2023-02-21T09:06:12;93898.00;;;14.30
41593;BMP180;28026;48.562;14.440;2023-02-21T09:08:43;93900.00;;;14.40
41593;BMP180;28026;48.562;14.440;2023-02-21T09:11:14;93906.00;;;14.40
41593;BMP180;28026;48.562;14.440;2023-02-21T09:13:45;93900.00;;;14.40
41593;BMP180;28026;48.562;14.440;2023-02-21T09:16:16;93911.00;;;14.40
41593;BMP180;28026;48.562;14.440;2023-02-21T09:18:55;93920.00;;;14.40
41593;BMP180;28026;48.562;14.440;2023-02-21T09:21:28;93922.00;;;14.30
41593;BMP180;28026;48.562;14.440;2023-02-21T09:23:59;93924.00;;;14.30
41593;BMP180;28026;48.562;14.440;2023-02-21T09:26:32;93913.00;;;14.20
41593;BMP180;28026;48.562;14.440;2023-02-21T09:29:03;93920.00;;;14.20
41593;BMP180;28026;48.562;14.440;2023-02-21T09:31:34;93911.00;;;14.20
41593;BMP180;28026;48.562;14.440;2023-02-21T09:34:04;93913.00;;;14.20
41593;BMP180;28026;48.562;14.440;2023-02-21T09:36:35;93910.00;;;14.30
41593;BMP180;28026;48.562;14.440;2023-02-21T09:39:07;93906.00;;;14.40
41593;BMP180;28026;48.562;14.440;2023-02-21T09:41:39;93904.00;;;14.50
41593;BMP180;28026;48.562;14.440;2023-02-21T09:44:25;93914.00;;;14.60
41593;BMP180;28026;48.562;14.440;2023-02-21T09:47:03;93896.00;;;14.60
41593;BMP180;28026;48.562;14.440;2023-02-21T09:49:40;93891.00;;;14.60
41593;BMP180;28026;48.562;14.440;2023-02-21T09:52:26;93895.00;;;14.80
41593;BMP180;28026;48.562;14.440;2023-02-21T09:55:27;93900.00;;;15.10
41593;BMP180;28026;48.562;14.440;2023-02-21T09:58:01;93896.00;;;15.20
41593;BMP180;28026;48.562;14.440;2023-02-21T10:00:36;93897.00;;;15.20
41593;BMP180;28026;48.562;14.440;2023-02-21T10:07:10;93901.00;;;15.50
41593;BMP180;28026;48.562;14.440;2023-02-21T10:13:30;93904.00;;;15.50
41593;BMP180;28026;48.562;14.440;2023-02-21T10:19:04;93895.00;;;15.80
41593;BMP180;28026;48.562;14.440;2023-02-21T10:21:47;93897.00;;;15.70
41593;BMP180;28026;48.562;14.440;2023-02-21T10:24:22;93900.00;;;15.80
41593;BMP180;28026;48.562;14.440;2023-02-21T10:27:05;93879.00;;;15.70
41593;BMP180;28026;48.562;14.440;2023-02-21T10:29:56;93885.00;;;15.70
41593;BMP180;28026;48.562;14.440;2023-02-21T10:32:34;93885.00;;;15.80
41593;BMP180;28026;48.562;14.440;2023-02-21T10:35:06;93876.00;;;15.90
41593;BMP180;28026;48.562;14.440;2023-02-21T10:37:53;93885.00;;;16.20
41593;BMP180;28026;48.562;14.440;2023-02-21T10:40:41;93878.00;;;16.30
41593;BMP180;28026;48.562;14.440;2023-02-21T10:47:05;93895.00;;;16.70
41593;BMP180;28026;48.562;14.440;2023-02-21T10:49:53;93909.00;;;17.00
41593;BMP180;28026;48.562;14.440;2023-02-21T10:52:38;93907.00;;;17.20
41593;BMP180;28026;48.562;14.440;2023-02-21T10:55:21;93900.00;;;17.50
41593;BMP180;28026;48.562;14.440;2023-02-21T10:58:04;93900.00;;;17.70
41593;BMP180;28026;48.562;14.440;2023-02-21T11:00:43;93893.00;;;17.90
41593;BMP180;28026;48.562;14.440;2023-02-21T11:05:59;93906.00;;;18.10
41593;BMP180;28026;48.562;14.440;2023-02-21T11:08:40;93899.00;;;18.00
41593;BMP180;28026;48.562;14.440;2023-02-21T11:11:13;93890.00;;;18.00
41593;BMP180;28026;48.562;14.440;2023-02-21T11:13:44;93889.00;;;17.90
41593;BMP180;28026;48.562;14.440;2023-02-21T11:16:18;93885.00;;;18.00
41593;BMP180;28026;48.562;14.440;2023-02-21T11:19:06;93881.00;;;18.00
41593;BMP180;28026;48.562;14.440;2023-02-21T11:21:37;93879.00;;;18.00
41593;BMP180;28026;48.562;14.440;2023-02-21T11:24:11;93876.00;;;18.20
41593;BMP180;28026;48.562;14.440;2023-02-21T11:26:51;93873.00;;;18.20
41593;BMP180;28026;48.562;14.440;2023-02-21T11:29:24;93869.00;;;18.20
41593;BMP180;28026;48.562;14.440;2023-02-21T11:31:56;93876.00;;;18.40
41593;BMP180;28026;48.562;14.440;2023-02-21T11:34:29;93879.00;;;18.50
41593;BMP180;28026;48.562;14.440;2023-02-21T11:37:03;93861.00;;;18.50
41593;BMP180;28026;48.562;14.440;2023-02-21T11:39:35;93861.00;;;18.50
41593;BMP180;28026;48.562;14.440;2023-02-21T11:42:31;93854.00;;;18.60
41593;BMP180;28026;48.562;14.440;2023-02-21T11:45:25;93865.00;;;18.70
41593;BMP180;28026;48.562;14.440;2023-02-21T11:48:06;93853.00;;;18.80
41593;BMP180;28026;48.562;14.440;2023-02-21T11:50:50;93849.00;;;18.90
41593;BMP180;28026;48.562;14.440;2023-02-21T11:53:42;93853.00;;;19.00
41593;BMP180;28026;48.562;14.440;2023-02-21T12:12:44;93840.00;;;18.60
41593;BMP180;28026;48.562;14.440;2023-02-21T12:25:19;93851.00;;;18.40
41593;BMP180;28026;48.562;14.440;2023-02-21T12:35:43;93836.00;;;18.20
41593;BMP180;28026;48.562;14.440;2023-02-21T12:42:47;93834.00;;;18.50
41593;BMP180;28026;48.562;14.440;2023-02-21T12:45:56;93839.00;;;18.70
41593;BMP180;28026;48.562;14.440;2023-02-21T12:57:40;93833.00;;;18.90
41593;BMP180;28026;48.562;14.440;2023-02-21T13:00:30;93832.00;;;19.00
41593;BMP180;28026;48.562;14.440;2023-02-21T13:06:40;93820.00;;;19.00
41593;BMP180;28026;48.562;14.440;2023-02-21T13:09:49;93819.00;;;19.10
41593;BMP180;28026;48.562;14.440;2023-02-21T13:12:40;93811.00;;;19.10
41593;BMP180;28026;48.562;14.440;2023-02-21T13:15:36;93816.00;;;19.20
41593;BMP180;28026;48.562;14.440;2023-02-21T13:18:22;93800.00;;;19.30
41593;BMP180;28026;48.562;14.440;2023-02-21T13:24:31;93791.00;;;19.20
41593;BMP180;28026;48.562;14.440;2023-02-21T13:31:00;93784.00;;;19.40
41593;BMP180;28026;48.562;14.440;2023-02-21T13:33:41;93774.00;;;19.40
41593;BMP180;28026;48.562;14.440;2023-02-21T13:36:39;93793.00;;;19.50
41593;BMP180;28026;48.562;14.440;2023-02-21T13:39:17;93788.00;;;19.50
41593;BMP180;28026;48.562;14.440;2023-02-21T13:45:07;93779.00;;;19.40
41593;BMP180;28026;48.562;14.440;2023-02-21T13:55:39;93794.00;;;18.90
41593;BMP180;28026;48.562;14.440;2023-02-21T13:58:44;93785.00;;;18.60
41593;BMP180;28026;48.562;14.440;2023-02-21T14:01:40;93804.00;;;18.40
41593;BMP180;28026;48.562;14.440;2023-02-21T14:04:59;93798.00;;;18.10
41593;BMP180;28026;48.562;14.440;2023-02-21T14:07:57;93794.00;;;17.90
41593;BMP180;28026;48.562;14.440;2023-02-21T14:10:50;93794.00;;;17.80
41593;BMP180;28026;48.562;14.440;2023-02-21T14:13:51;93795.00;;;17.70
41593;BMP180;28026;48.562;14.440;2023-02-21T14:16:51;93793.00;;;17.70
41593;BMP180;28026;48.562;14.440;2023-02-21T14:22:27;93793.00;;;17.90
41593;BMP180;28026;48.562;14.440;2023-02-21T14:25:20;93794.00;;;17.90
41593;BMP180;28026;48.562;14.440;2023-02-21T14:27:55;93794.00;;;17.80
41593;BMP180;28026;48.562;14.440;2023-02-21T14:30:32;93797.00;;;17.80
41593;BMP180;28026;48.562;14.440;2023-02-21T14:33:21;93795.00;;;17.80
41593;BMP180;28026;48.562;14.440;2023-02-21T14:36:03;93794.00;;;17.80
41593;BMP180;28026;48.562;14.440;2023-02-21T14:38:41;93790.00;;;17.80
41593;BMP180;28026;48.562;14.440;2023-02-21T14:45:34;93787.00;;;17.70
41593;BMP180;28026;48.562;14.440;2023-02-21T14:48:04;93787.00;;;17.60
41593;BMP180;28026;48.562;14.440;2023-02-21T15:01:45;93763.00;;;17.90
41593;BMP180;28026;48.562;14.440;2023-02-21T15:07:23;93768.00;;;18.40
41593;BMP180;28026;48.562;14.440;2023-02-21T15:10:31;93762.00;;;18.60
41593;BMP180;28026;48.562;14.440;2023-02-21T15:13:27;93760.00;;;18.70
41593;BMP180;28026;48.562;14.440;2023-02-21T15:16:14;93757.00;;;18.60
41593;BMP180;28026;48.562;14.440;2023-02-21T15:19:02;93758.00;;;18.60
41593;BMP180;28026;48.562;14.440;2023-02-21T15:21:32;93754.00;;;18.70
41593;BMP180;28026;48.562;14.440;2023-02-21T15:24:15;93747.00;;;18.60
41593;BMP180;28026;48.562;14.440;2023-02-21T15:26:46;93756.00;;;18.70
41593;BMP180;28026;48.562;14.440;2023-02-21T15:29:17;93754.00;;;18.70
41593;BMP180;28026;48.562;14.440;2023-02-21T15:31:53;93749.00;;;18.70
41593;BMP180;28026;48.562;14.440;2023-02-21T15:34:35;93750.00;;;18.50
41593;BMP180;28026;48.562;14.440;2023-02-21T15:37:27;93754.00;;;18.40
41593;BMP180;28026;48.562;14.440;2023-02-21T15:40:12;93751.00;;;18.40
41593;BMP180;28026;48.562;14.440;2023-02-21T15:42:49;93748.00;;;18.30
41593;BMP180;28026;48.562;14.440;2023-02-21T15:45:29;93739.00;;;18.30
41593;BMP180;28026;48.562;14.440;2023-02-21T15:48:12;93747.00;;;18.20
41593;BMP180;28026;48.562;14.440;2023-02-21T15:50:45;93737.00;;;18.10
41593;BMP180;28026;48.562;14.440;2023-02-21T15:53:20;93744.00;;;18.10
41593;BMP180;28026;48.562;14.440;2023-02-21T15:55:53;93738.00;;;18.10
41593;BMP180;28026;48.562;14.440;2023-02-21T15:58:26;93740.00;;;18.00
41593;BMP180;28026;48.562;14.440;2023-02-21T16:01:09;93750.00;;;18.00
41593;BMP180;28026;48.562;14.440;2023-02-21T16:03:43;93750.00;;;18.00
41593;BMP180;28026;48.562;14.440;2023-02-21T16:06:36;93741.00;;;18.00
41593;BMP180;28026;48.562;14.440;2023-02-21T16:09:21;93749.00;;;18.00
41593;BMP180;28026;48.562;14.440;2023-02-21T16:14:58;93750.00;;;18.00
41593;BMP180;28026;48.562;14.440;2023-02-21T16:17:39;93746.00;;;18.00
41593;BMP180;28026;48.562;14.440;2023-02-21T16:20:17;93745.00;;;18.00
41593;BMP180;28026;48.562;14.440;2023-02-21T16:23:23;93746.00;;;18.00
41593;BMP180;28026;48.562;14.440;2023-02-21T16:28:47;93745.00;;;17.80
41593;BMP180;28026;48.562;14.440;2023-02-21T16:31:30;93751.00;;;17.80
41593;BMP180;28026;48.562;14.440;2023-02-21T16:34:03;93744.00;;;17.70
41593;BMP180;28026;48.562;14.440;2023-02-21T16:36:34;93745.00;;;17.60
41593;BMP180;28026;48.562;14.440;2023-02-21T16:39:08;93746.00;;;17.50
41593;BMP180;28026;48.562;14.440;2023-02-21T16:41:39;93737.00;;;17.40
41593;BMP180;28026;48.562;14.440;2023-02-21T16:44:10;93743.00;;;17.40
41593;BMP180;28026;48.562;14.440;2023-02-21T16:46:42;93732.00;;;17.30
41593;BMP180;28026;48.562;14.440;2023-02-21T16:49:13;93736.00;;;17.20
41593;BMP180;28026;48.562;14.440;2023-02-21T16:51:44;93742.00;;;17.10
41593;BMP180;28026;48.562;14.440;2023-02-21T16:54:16;93741.00;;;17.00
41593;BMP180;28026;48.562;14.440;2023-02-21T16:56:51;93740.00;;;16.90
41593;BMP180;28026;48.562;14.440;2023-02-21T16:59:24;93743.00;;;16.90
41593;BMP180;28026;48.562;14.440;2023-02-21T17:01:54;93750.00;;;16.80
41593;BMP180;28026;48.562;14.440;2023-02-21T17:04:25;93748.00;;;16.80
41593;BMP180;28026;48.562;14.440;2023-02-21T17:07:03;93752.00;;;16.70
41593;BMP180;28026;48.562;14.440;2023-02-21T17:09:39;93744.00;;;16.70
41593;BMP180;28026;48.562;14.440;2023-02-21T17:12:12;93759.00;;;16.70
41593;BMP180;28026;48.562;14.440;2023-02-21T17:14:42;93756.00;;;16.80
41593;BMP180;28026;48.562;14.440;2023-02-21T17:17:14;93756.00;;;16.80
41593;BMP180;28026;48.562;14.440;2023-02-21T17:19:45;93752.00;;;16.80
41593;BMP180;28026;48.562;14.440;2023-02-21T17:22:16;93756.00;;;16.80
41593;BMP180;28026;48.562;14.440;2023-02-21T17:24:47;93750.00;;;16.80
41593;BMP180;28026;48.562;14.440;2023-02-21T17:27:18;93753.00;;;16.70